createdAt,value
2022-08-11T00:01:28.411Z,15.15
2022-08-11T00:03:58.889Z,15.12
2022-08-11T00:06:37.070Z,15.11
2022-08-11T00:09:09.045Z,15.09
2022-08-11T00:11:46.867Z,15.07
2022-08-11T00:14:19.840Z,15.04
2022-08-11T00:17:08.035Z,15.02
2022-08-11T00:20:12.751Z,15.00
2022-08-11T00:22:29.980Z,14.98
2022-08-11T00:25:02.398Z,14.95
2022-08-11T00:27:36.007Z,14.94
2022-08-11T00:30:06.512Z,14.91
2022-08-11T00:32:36.661Z,14.88
2022-08-11T00:35:51.948Z,14.85
2022-08-11T00:37:59.816Z,14.82
2022-08-11T00:40:44.391Z,14.82
2022-08-11T00:43:35.769Z,14.81
2022-08-11T00:46:18.399Z,14.79
2022-08-11T00:49:05.594Z,14.76
2022-08-11T00:52:05.464Z,14.74
2022-08-11T00:55:04.094Z,14.70
2022-08-11T00:57:39.675Z,14.65
2022-08-11T01:00:25.510Z,14.63
2022-08-11T01:03:32.244Z,14.62
2022-08-11T01:06:19.243Z,14.61
2022-08-11T01:09:22.687Z,14.59
2022-08-11T01:12:21.736Z,14.55
2022-08-11T01:15:05.793Z,14.50
2022-08-11T01:17:55.654Z,14.47
2022-08-11T01:20:57.337Z,14.42
2022-08-11T01:24:05.150Z,14.38
2022-08-11T01:26:57.909Z,14.34
2022-08-11T01:30:00.237Z,14.30
2022-08-11T01:33:05.102Z,14.27
2022-08-11T01:35:37.371Z,14.24
2022-08-11T01:38:36.927Z,14.23
2022-08-11T01:41:26.346Z,14.25
2022-08-11T01:44:28.358Z,14.26
2022-08-11T01:47:53.197Z,14.25
2022-08-11T01:50:40.583Z,14.23
2022-08-11T01:53:50.145Z,14.21
2022-08-11T01:56:28.060Z,14.18
2022-08-11T01:59:20.183Z,14.16
2022-08-11T02:02:03.496Z,14.13
2022-08-11T02:04:59.604Z,14.09
2022-08-11T02:07:37.204Z,14.05
2022-08-11T02:10:36.457Z,14.02
2022-08-11T02:13:18.623Z,13.97
2022-08-11T02:16:28.437Z,13.92
2022-08-11T02:19:46.115Z,13.89
2022-08-11T02:22:50.770Z,13.86
2022-08-11T02:25:36.220Z,13.84
2022-08-11T02:28:11.209Z,13.83
2022-08-11T02:31:12.176Z,13.81
2022-08-11T02:34:35.346Z,13.79
2022-08-11T02:37:25.363Z,13.79
2022-08-11T02:39:59.426Z,13.79
2022-08-11T02:42:36.716Z,13.77
2022-08-11T02:45:07.440Z,13.75
2022-08-11T02:48:04.140Z,13.74
2022-08-11T02:50:39.938Z,13.73
2022-08-11T02:53:18.089Z,13.71
2022-08-11T02:56:16.401Z,13.69
2022-08-11T02:59:13.109Z,13.67
2022-08-11T03:02:04.929Z,13.65
2022-08-11T03:04:50.156Z,13.62
2022-08-11T03:07:31.431Z,13.61
2022-08-11T03:10:24.028Z,13.59
2022-08-11T03:13:40.860Z,13.58
2022-08-11T03:16:45.957Z,13.56
2022-08-11T03:19:28.275Z,13.56
2022-08-11T03:22:34.788Z,13.55
2022-08-11T03:25:19.929Z,13.54
2022-08-11T03:28:16.898Z,13.52
2022-08-11T03:31:19.417Z,13.50
2022-08-11T03:34:08.291Z,13.49
2022-08-11T03:36:55.750Z,13.48
2022-08-11T03:40:09.503Z,13.49
2022-08-11T03:42:56.303Z,13.48
2022-08-11T03:45:43.766Z,13.48
2022-08-11T03:48:33.180Z,13.48
2022-08-11T03:51:20.140Z,13.48
2022-08-11T03:54:05.283Z,13.49
2022-08-11T03:56:51.363Z,13.50
2022-08-11T03:59:25.645Z,13.52
2022-08-11T04:02:27.085Z,13.53
2022-08-11T04:05:36.311Z,13.55
2022-08-11T04:08:34.216Z,13.57
2022-08-11T04:11:55.388Z,13.60
2022-08-11T04:14:53.918Z,13.64
2022-08-11T04:17:25.291Z,13.69
2022-08-11T04:20:31.543Z,13.73
2022-08-11T04:23:12.123Z,13.78
2022-08-11T04:26:18.852Z,13.84
2022-08-11T04:29:02.139Z,13.90
2022-08-11T04:31:50.767Z,13.95
2022-08-11T04:34:35.643Z,14.01
2022-08-11T04:37:37.233Z,14.07
2022-08-11T04:40:29.296Z,14.14
2022-08-11T04:43:34.538Z,14.20
2022-08-11T04:46:06.481Z,14.28
2022-08-11T04:49:26.325Z,14.34
2022-08-11T04:52:37.558Z,14.42
2022-08-11T04:55:50.370Z,14.50
2022-08-11T04:58:55.796Z,14.58
2022-08-11T05:01:43.355Z,14.67
2022-08-11T05:04:35.919Z,14.75
2022-08-11T05:07:46.082Z,14.84
2022-08-11T05:10:29.052Z,14.95
2022-08-11T05:13:21.959Z,15.04
2022-08-11T05:16:15.553Z,15.15
2022-08-11T05:19:10.575Z,15.27
2022-08-11T05:22:01.211Z,15.40
2022-08-11T05:25:00.153Z,15.54
2022-08-11T05:27:57.640Z,15.70
2022-08-11T05:30:50.059Z,15.86
2022-08-11T05:33:45.111Z,16.03
2022-08-11T05:36:24.857Z,16.21
2022-08-11T05:39:36.379Z,16.37
2022-08-11T05:42:39.047Z,16.58
2022-08-11T05:45:57.302Z,16.79
2022-08-11T05:48:40.787Z,16.98
2022-08-11T05:51:30.266Z,17.16
2022-08-11T05:54:28.705Z,17.33
2022-08-11T05:57:00.274Z,17.51
2022-08-11T05:59:29.846Z,17.65
2022-08-11T06:02:03.634Z,17.80
2022-08-11T06:04:32.458Z,17.96
2022-08-11T06:07:09.009Z,18.09
2022-08-11T06:09:48.713Z,18.24
2022-08-11T06:12:23.892Z,18.37
2022-08-11T06:14:56.179Z,18.50
2022-08-11T06:17:26.967Z,18.62
2022-08-11T06:20:11.985Z,18.76
2022-08-11T06:22:44.019Z,18.91
2022-08-11T06:25:12.659Z,19.01
2022-08-11T06:27:44.591Z,19.09
2022-08-11T06:30:16.277Z,19.18
2022-08-11T06:32:46.158Z,19.24
2022-08-11T06:35:38.948Z,19.31
2022-08-11T06:38:16.369Z,19.41
2022-08-11T06:41:13.021Z,19.50
2022-08-11T06:43:55.496Z,19.61
2022-08-11T06:46:33.371Z,19.72
2022-08-11T06:49:04.055Z,19.80
2022-08-11T06:51:35.353Z,19.88
2022-08-11T06:54:05.686Z,19.96
2022-08-11T06:57:26.438Z,20.06
2022-08-11T07:00:04.799Z,20.18
2022-08-11T07:02:43.814Z,20.28
2022-08-11T07:05:21.280Z,20.39
2022-08-11T07:08:59.687Z,20.51
2022-08-11T07:11:58.298Z,20.65
2022-08-11T07:14:49.134Z,20.77
2022-08-11T07:17:22.184Z,20.88
2022-08-11T07:20:21.655Z,21.00
2022-08-11T07:23:14.970Z,21.13
2022-08-11T07:26:05.718Z,21.27
2022-08-11T07:28:58.226Z,21.40
2022-08-11T07:31:51.019Z,21.55
2022-08-11T07:34:28.230Z,21.71
2022-08-11T07:37:01.138Z,21.87
2022-08-11T07:39:34.156Z,22.04
2022-08-11T07:42:08.078Z,22.18
2022-08-11T07:44:59.932Z,22.33
2022-08-11T07:47:47.809Z,22.47
2022-08-11T07:50:35.322Z,22.59
2022-08-11T07:53:04.636Z,22.71
2022-08-11T07:55:51.335Z,22.82
2022-08-11T07:58:52.258Z,22.95
2022-08-11T08:01:43.131Z,23.10
2022-08-11T08:04:32.935Z,23.24
2022-08-11T08:07:22.343Z,23.35
2022-08-11T08:10:14.204Z,23.43
2022-08-11T08:13:03.209Z,23.49
2022-08-11T08:15:50.812Z,23.55
2022-08-11T08:18:26.183Z,23.61
2022-08-11T08:21:12.430Z,23.65
2022-08-11T08:23:47.334Z,23.69
2022-08-11T08:26:40.842Z,23.74
2022-08-11T08:29:28.162Z,23.79
2022-08-11T08:31:57.699Z,23.85
2022-08-11T08:34:26.351Z,23.90
2022-08-11T08:36:55.697Z,23.94
2022-08-11T08:39:24.461Z,23.99
2022-08-11T08:41:57.149Z,24.04
2022-08-11T08:44:38.351Z,24.11
2022-08-11T08:47:14.241Z,24.19
2022-08-11T08:49:49.718Z,24.27
2022-08-11T08:52:26.075Z,24.34
2022-08-11T08:55:05.898Z,24.41
2022-08-11T08:57:39.194Z,24.47
2022-08-11T09:00:12.890Z,24.54
2022-08-11T09:02:46.251Z,24.60
2022-08-11T09:05:18.063Z,24.67
2022-08-11T09:07:51.351Z,24.74
2022-08-11T09:10:20.770Z,24.82
2022-08-11T09:12:50.653Z,24.88
2022-08-11T09:15:20.152Z,24.94
2022-08-11T09:17:52.030Z,24.98
2022-08-11T09:20:21.691Z,25.05
2022-08-11T09:24:06.330Z,25.10
2022-08-11T09:26:20.136Z,25.13
2022-08-11T09:28:50.326Z,25.12
2022-08-11T09:31:21.937Z,25.13
2022-08-11T09:33:54.230Z,25.15
2022-08-11T09:36:41.360Z,25.17
2022-08-11T09:39:31.753Z,25.20
2022-08-11T09:42:04.520Z,25.19
2022-08-11T09:44:48.733Z,25.15
2022-08-11T09:47:29.764Z,25.11
2022-08-11T09:50:01.286Z,25.10
2022-08-11T09:52:37.906Z,25.08
2022-08-11T09:55:11.513Z,25.10
2022-08-11T09:57:59.604Z,25.12
2022-08-11T10:00:37.464Z,25.08
2022-08-11T10:03:11.535Z,24.97
2022-08-11T10:06:08.037Z,24.86
2022-08-11T10:08:40.913Z,24.77
2022-08-11T10:11:17.593Z,24.77
2022-08-11T10:14:33.664Z,24.80
2022-08-11T10:16:55.207Z,24.84
2022-08-11T10:19:24.592Z,24.87
2022-08-11T10:22:14.221Z,24.94
2022-08-11T10:25:03.146Z,25.06
2022-08-11T10:28:17.603Z,25.16
2022-08-11T10:30:39.217Z,25.28
2022-08-11T10:33:37.971Z,25.41
2022-08-11T10:36:16.027Z,25.52
2022-08-11T10:38:52.633Z,25.64
2022-08-11T10:42:03.438Z,25.73
2022-08-11T10:44:29.716Z,25.78
2022-08-11T10:47:16.528Z,25.80
2022-08-11T10:49:44.569Z,25.83
2022-08-11T10:52:31.537Z,25.79
2022-08-11T10:55:18.395Z,25.74
2022-08-11T10:58:05.639Z,25.73
2022-08-11T11:00:35.145Z,25.74
2022-08-11T11:03:23.216Z,25.74
2022-08-11T11:06:13.220Z,25.78
2022-08-11T11:08:52.977Z,25.81
2022-08-11T11:11:23.327Z,25.79
2022-08-11T11:14:11.399Z,25.71
2022-08-11T11:17:01.137Z,25.60
2022-08-11T11:19:30.262Z,25.58
2022-08-11T11:22:19.410Z,25.59
2022-08-11T11:25:16.713Z,25.63
2022-08-11T11:28:24.095Z,25.62
2022-08-11T11:30:55.033Z,25.56
2022-08-11T11:34:07.006Z,25.54
2022-08-11T11:36:39.728Z,25.55
2022-08-11T11:39:08.983Z,25.60
2022-08-11T11:41:37.854Z,25.63
2022-08-11T11:44:06.214Z,25.61
2022-08-11T11:46:38.807Z,25.57
2022-08-11T11:49:15.863Z,25.53
2022-08-11T11:51:49.994Z,25.46
2022-08-11T11:54:22.802Z,25.38
2022-08-11T11:56:53.473Z,25.30
2022-08-11T11:59:43.655Z,25.21
2022-08-11T12:02:14.965Z,25.11
2022-08-11T12:04:45.825Z,25.03
2022-08-11T12:07:33.243Z,24.95
2022-08-11T12:10:01.793Z,24.88
2022-08-11T12:12:50.574Z,24.83
2022-08-11T12:15:19.881Z,24.77
2022-08-11T12:18:08.337Z,24.75
2022-08-11T12:20:38.597Z,24.80
2022-08-11T12:23:30.489Z,24.89
2022-08-11T12:26:27.058Z,25.00
2022-08-11T12:28:58.381Z,25.07
2022-08-11T12:31:26.730Z,25.09
2022-08-11T12:34:04.319Z,25.10
2022-08-11T12:36:37.374Z,25.10
2022-08-11T12:39:16.075Z,25.11
2022-08-11T12:42:11.051Z,25.13
2022-08-11T12:44:57.775Z,25.19
2022-08-11T12:48:40.169Z,25.25
2022-08-11T12:50:54.435Z,25.26
2022-08-11T12:53:28.736Z,25.27
2022-08-11T12:56:18.911Z,25.30
2022-08-11T12:58:49.806Z,25.35
2022-08-11T13:01:39.278Z,25.41
2022-08-11T13:04:25.917Z,25.49
2022-08-11T13:06:54.460Z,25.58
2022-08-11T13:09:24.258Z,25.65
2022-08-11T13:12:10.749Z,25.65
2022-08-11T13:14:39.669Z,25.57
2022-08-11T13:17:40.192Z,25.41
2022-08-11T13:20:13.845Z,25.15
2022-08-11T13:22:47.021Z,24.95
2022-08-11T13:25:16.608Z,24.77
2022-08-11T13:27:46.799Z,24.62
2022-08-11T13:30:39.113Z,24.51
2022-08-11T13:33:10.550Z,24.38
2022-08-11T13:35:39.542Z,24.30
2022-08-11T13:38:18.354Z,24.21
2022-08-11T13:40:56.555Z,24.16
2022-08-11T13:43:25.087Z,24.11
2022-08-11T13:46:14.888Z,24.07
2022-08-11T13:48:43.331Z,24.04
2022-08-11T13:51:34.311Z,23.95
2022-08-11T13:54:21.518Z,23.74
2022-08-11T13:56:54.605Z,23.56
2022-08-11T13:59:30.080Z,23.32
2022-08-11T14:02:21.649Z,23.03
2022-08-11T14:05:03.165Z,22.81
2022-08-11T14:07:39.628Z,22.65
2022-08-11T14:10:12.275Z,22.52
2022-08-11T14:13:02.134Z,22.40
2022-08-11T14:15:35.277Z,22.27
2022-08-11T14:18:07.517Z,22.15
2022-08-11T14:20:59.155Z,22.07
2022-08-11T14:23:32.921Z,21.98
2022-08-11T14:26:20.371Z,21.89
2022-08-11T14:28:49.200Z,21.81
2022-08-11T14:31:17.943Z,21.75
2022-08-11T14:33:59.282Z,21.70
2022-08-11T14:36:35.387Z,21.69
2022-08-11T14:39:13.044Z,21.71
2022-08-11T14:42:10.277Z,21.81
2022-08-11T14:45:22.748Z,21.95
2022-08-11T14:47:58.257Z,22.15
2022-08-11T14:50:28.517Z,22.31
2022-08-11T14:53:00.119Z,22.43
2022-08-11T14:55:56.192Z,22.47
2022-08-11T14:58:27.060Z,22.50
2022-08-11T15:00:58.514Z,22.51
2022-08-11T15:03:28.626Z,22.49
2022-08-11T15:06:00.393Z,22.45
2022-08-11T15:08:54.098Z,22.39
2022-08-11T15:11:48.073Z,22.38
2022-08-11T15:14:37.376Z,22.35
2022-08-11T15:17:07.989Z,22.31
2022-08-11T15:19:59.365Z,22.28
2022-08-11T15:22:46.525Z,22.28
2022-08-11T15:25:15.453Z,22.27
2022-08-11T15:28:07.410Z,22.27
2022-08-11T15:30:56.491Z,22.27
2022-08-11T15:33:46.038Z,22.31
2022-08-11T15:36:34.011Z,22.37
2022-08-11T15:39:08.855Z,22.44
2022-08-11T15:42:23.408Z,22.53
2022-08-11T15:45:15.100Z,22.64
2022-08-11T15:48:05.204Z,22.74
2022-08-11T15:50:46.355Z,22.82
2022-08-11T15:53:24.731Z,22.84
2022-08-11T15:55:55.032Z,22.81
2022-08-11T15:58:44.745Z,22.78
2022-08-11T16:01:34.503Z,22.75
2022-08-11T16:04:14.130Z,22.76
2022-08-11T16:06:47.740Z,22.75
2022-08-11T16:09:22.414Z,22.69
2022-08-11T16:11:52.746Z,22.65
2022-08-11T16:14:42.929Z,22.60
2022-08-11T16:17:18.597Z,22.59
2022-08-11T16:19:49.969Z,22.59
2022-08-11T16:22:34.448Z,22.53
2022-08-11T16:27:03.581Z,22.49
2022-08-11T16:28:06.339Z,22.47
2022-08-11T16:30:37.487Z,22.46
2022-08-11T16:33:34.065Z,22.42
2022-08-11T16:36:14.939Z,22.38
2022-08-11T16:38:44.032Z,22.37
2022-08-11T16:41:16.422Z,22.36
2022-08-11T16:44:06.352Z,22.34
2022-08-11T16:46:54.877Z,22.31
2022-08-11T16:49:52.155Z,22.27
2022-08-11T16:52:25.077Z,22.22
2022-08-11T16:54:58.225Z,22.19
2022-08-11T16:57:52.797Z,22.15
2022-08-11T17:00:29.862Z,22.12
2022-08-11T17:03:20.219Z,22.09
2022-08-11T17:06:13.060Z,22.04
2022-08-11T17:09:13.072Z,22.00
2022-08-11T17:12:04.552Z,21.96
2022-08-11T17:14:38.171Z,21.93
2022-08-11T17:17:12.060Z,21.90
2022-08-11T17:20:41.983Z,21.87
2022-08-11T17:23:01.465Z,21.86
2022-08-11T17:25:31.919Z,21.82
2022-08-11T17:28:22.056Z,21.81
2022-08-11T17:31:22.043Z,21.78
2022-08-11T17:34:11.514Z,21.73
2022-08-11T17:36:45.807Z,21.66
2022-08-11T17:39:16.001Z,21.59
2022-08-11T17:42:03.939Z,21.52
2022-08-11T17:44:53.386Z,21.44
2022-08-11T17:47:40.753Z,21.37
2022-08-11T17:50:17.044Z,21.32
2022-08-11T17:53:06.515Z,21.23
2022-08-11T17:55:54.709Z,21.13
2022-08-11T17:58:42.420Z,21.03
2022-08-11T18:01:11.889Z,20.94
2022-08-11T18:03:56.272Z,20.86
2022-08-11T18:06:34.148Z,20.81
2022-08-11T18:09:26.607Z,20.74
2022-08-11T18:12:24.383Z,20.63
2022-08-11T18:15:14.035Z,20.51
2022-08-11T18:18:00.968Z,20.44
2022-08-11T18:20:47.866Z,20.38
2022-08-11T18:23:45.699Z,20.26
2022-08-11T18:26:37.895Z,20.14
2022-08-11T18:29:27.261Z,20.01
2022-08-11T18:32:20.674Z,19.90
2022-08-11T18:35:14.386Z,19.79
2022-08-11T18:38:05.924Z,19.69
2022-08-11T18:40:54.673Z,19.60
2022-08-11T18:43:45.031Z,19.52
2022-08-11T18:46:39.740Z,19.42
2022-08-11T18:50:03.690Z,19.32
2022-08-11T18:52:47.901Z,19.21
2022-08-11T18:55:38.086Z,19.10
2022-08-11T18:58:29.401Z,19.02
2022-08-11T19:01:19.038Z,18.97
2022-08-11T19:04:10.889Z,18.93
2022-08-11T19:07:01.723Z,18.90
2022-08-11T19:09:50.458Z,18.88
2022-08-11T19:12:39.844Z,18.86
2022-08-11T19:15:29.502Z,18.85
2022-08-11T19:18:18.032Z,18.84
2022-08-11T19:21:05.205Z,18.83
2022-08-11T19:24:00.523Z,18.81
2022-08-11T19:26:53.166Z,18.79
2022-08-11T19:30:07.619Z,18.77
2022-08-11T19:32:52.458Z,18.74
2022-08-11T19:35:42.447Z,18.73
2022-08-11T19:38:33.237Z,18.73
2022-08-11T19:41:41.330Z,18.71
2022-08-11T19:44:30.993Z,18.66
2022-08-11T19:47:21.177Z,18.61
2022-08-11T19:50:11.160Z,18.56
2022-08-11T19:53:01.696Z,18.52
2022-08-11T19:56:07.248Z,18.48
2022-08-11T19:58:56.829Z,18.45
2022-08-11T20:02:01.471Z,18.42
2022-08-11T20:04:51.209Z,18.41
2022-08-11T20:07:39.062Z,18.40
2022-08-11T20:10:28.050Z,18.39
2022-08-11T20:13:21.268Z,18.38
2022-08-11T20:16:12.001Z,18.37
2022-08-11T20:19:00.497Z,18.37
2022-08-11T20:21:49.369Z,18.36
2022-08-11T20:24:37.132Z,18.35
2022-08-11T20:27:27.666Z,18.34
2022-08-11T20:30:17.934Z,18.32
2022-08-11T20:33:06.622Z,18.31
2022-08-11T20:35:57.936Z,18.28
2022-08-11T20:38:49.016Z,18.25
2022-08-11T20:41:58.590Z,18.21
2022-08-11T20:44:51.276Z,18.16
2022-08-11T20:47:39.510Z,18.12
2022-08-11T20:50:45.618Z,18.08
2022-08-11T20:53:35.853Z,18.04
2022-08-11T20:56:28.656Z,18.00
2022-08-11T20:59:21.560Z,17.96
2022-08-11T21:02:10.744Z,17.90
2022-08-11T21:05:00.330Z,17.86
2022-08-11T21:07:55.581Z,17.81
2022-08-11T21:10:47.135Z,17.77
2022-08-11T21:13:42.070Z,17.73
2022-08-11T21:16:35.364Z,17.69
2022-08-11T21:20:00.093Z,17.63
2022-08-11T21:22:59.339Z,17.56
2022-08-11T21:25:55.018Z,17.50
2022-08-11T21:28:47.871Z,17.45
2022-08-11T21:31:39.784Z,17.40
2022-08-11T21:34:32.876Z,17.36
2022-08-11T21:37:20.971Z,17.33
2022-08-11T21:40:10.727Z,17.31
2022-08-11T21:43:03.910Z,17.29
2022-08-11T21:45:54.731Z,17.26
2022-08-11T21:48:44.611Z,17.25
2022-08-11T21:51:31.080Z,17.24
2022-08-11T21:54:19.877Z,17.23
2022-08-11T21:57:08.013Z,17.23
2022-08-11T22:00:10.493Z,17.23
2022-08-11T22:03:03.390Z,17.23
2022-08-11T22:05:52.817Z,17.24
2022-08-11T22:08:40.398Z,17.24
2022-08-11T22:11:32.371Z,17.25
2022-08-11T22:14:24.335Z,17.27
2022-08-11T22:17:10.875Z,17.29
2022-08-11T22:19:59.725Z,17.29
2022-08-11T22:22:53.772Z,17.31
2022-08-11T22:25:53.738Z,17.32
2022-08-11T22:28:44.586Z,17.33
2022-08-11T22:31:31.966Z,17.36
2022-08-11T22:34:18.718Z,17.38
2022-08-11T22:37:07.361Z,17.39
2022-08-11T22:40:01.717Z,17.42
2022-08-11T22:42:51.716Z,17.44
2022-08-11T22:45:40.059Z,17.46
2022-08-11T22:48:28.040Z,17.48
2022-08-11T22:51:16.785Z,17.51
2022-08-11T22:54:04.841Z,17.53
2022-08-11T22:56:52.851Z,17.55
2022-08-11T22:59:40.167Z,17.58
2022-08-11T23:02:26.717Z,17.61
2022-08-11T23:05:13.924Z,17.62
2022-08-11T23:08:01.345Z,17.64
2022-08-11T23:10:48.722Z,17.64
2022-08-11T23:13:35.852Z,17.65
2022-08-11T23:16:23.044Z,17.66
2022-08-11T23:19:10.711Z,17.67
2022-08-11T23:21:58.650Z,17.67
2022-08-11T23:24:45.722Z,17.67
2022-08-11T23:27:33.016Z,17.68
2022-08-11T23:30:20.498Z,17.68
2022-08-11T23:33:13.067Z,17.68
2022-08-11T23:36:05.390Z,17.69
2022-08-11T23:38:52.423Z,17.70
2022-08-11T23:41:41.537Z,17.69
2022-08-11T23:44:28.883Z,17.71
2022-08-11T23:47:19.333Z,17.72
2022-08-11T23:50:06.881Z,17.72
2022-08-11T23:52:54.622Z,17.73
2022-08-11T23:55:41.388Z,17.72
2022-08-11T23:58:28.504Z,17.72
